sensor_id;sensor_type;location;lat;lon;timestamp;pressure;altitude;pressure_sealevel;temperature;humidity
3748;BME280;1889;50.058;8.688;2023-04-29T00:02:02;99867.78;;;15.95;69.28
3748;BME280;1889;50.058;8.688;2023-04-29T00:04:32;99870.04;;;15.64;70.65
3748;BME280;1889;50.058;8.688;2023-04-29T00:07:01;99862.55;;;15.52;71.48
3748;BME280;1889;50.058;8.688;2023-04-29T00:09:31;99867.91;;;15.50;71.82
3748;BME280;1889;50.058;8.688;2023-04-29T00:12:00;99867.91;;;15.50;71.82
3748;BME280;1889;50.058;8.688;2023-04-29T00:14:29;99868.39;;;15.72;71.08
3748;BME280;1889;50.058;8.688;2023-04-29T00:16:59;99868.39;;;15.72;71.08
3748;BME280;1889;50.058;8.688;2023-04-29T00:19:28;99872.55;;;15.77;70.61
3748;BME280;1889;50.058;8.688;2023-04-29T00:21:57;99871.69;;;15.77;70.54
3748;BME280;1889;50.058;8.688;2023-04-29T00:24:27;99873.54;;;15.75;70.55
3748;BME280;1889;50.058;8.688;2023-04-29T00:26:56;99874.95;;;15.51;71.59
3748;BME280;1889;50.058;8.688;2023-04-29T00:29:26;99874.95;;;15.51;71.59
3748;BME280;1889;50.058;8.688;2023-04-29T00:31:55;99871.13;;;15.05;73.63
3748;BME280;1889;50.058;8.688;2023-04-29T00:34:25;99867.62;;;15.04;73.77
3748;BME280;1889;50.058;8.688;2023-04-29T00:36:54;99871.39;;;14.99;73.93
3748;BME280;1889;50.058;8.688;2023-04-29T00:39:23;99865.94;;;14.68;75.24
3748;BME280;1889;50.058;8.688;2023-04-29T00:41:53;99866.98;;;14.53;75.84
3748;BME280;1889;50.058;8.688;2023-04-29T00:44:22;99861.20;;;14.43;76.69
3748;BME280;1889;50.058;8.688;2023-04-29T00:46:52;99865.99;;;14.32;77.44
3748;BME280;1889;50.058;8.688;2023-04-29T00:49:21;99863.05;;;14.16;78.07
3748;BME280;1889;50.058;8.688;2023-04-29T00:51:50;99870.91;;;14.06;78.80
3748;BME280;1889;50.058;8.688;2023-04-29T00:54:20;99874.52;;;14.03;79.47
3748;BME280;1889;50.058;8.688;2023-04-29T00:56:50;99874.84;;;13.83;80.29
3748;BME280;1889;50.058;8.688;2023-04-29T00:59:20;99877.89;;;13.70;81.33
3748;BME280;1889;50.058;8.688;2023-04-29T01:01:50;99879.55;;;13.61;81.69
3748;BME280;1889;50.058;8.688;2023-04-29T01:04:21;99877.44;;;13.84;80.82
3748;BME280;1889;50.058;8.688;2023-04-29T01:07:13;99873.66;;;14.03;80.10
3748;BME280;1889;50.058;8.688;2023-04-29T01:10:00;99871.11;;;14.25;78.66
3748;BME280;1889;50.058;8.688;2023-04-29T01:12:37;99878.59;;;14.37;77.39
3748;BME280;1889;50.058;8.688;2023-04-29T01:15:16;99876.23;;;14.18;77.50
3748;BME280;1889;50.058;8.688;2023-04-29T01:17:57;99883.86;;;13.77;79.55
3748;BME280;1889;50.058;8.688;2023-04-29T01:20:26;99886.41;;;13.67;80.43
3748;BME280;1889;50.058;8.688;2023-04-29T01:22:55;99887.34;;;13.53;81.15
3748;BME280;1889;50.058;8.688;2023-04-29T01:25:25;99892.91;;;13.57;81.56
3748;BME280;1889;50.058;8.688;2023-04-29T01:28:01;99891.73;;;13.65;81.35
3748;BME280;1889;50.058;8.688;2023-04-29T01:33:32;99879.23;;;14.32;78.30
3748;BME280;1889;50.058;8.688;2023-04-29T01:36:21;99873.70;;;14.51;77.36
3748;BME280;1889;50.058;8.688;2023-04-29T01:41:43;99884.38;;;14.83;75.73
3748;BME280;1889;50.058;8.688;2023-04-29T01:44:23;99881.28;;;14.94;75.33
3748;BME280;1889;50.058;8.688;2023-04-29T01:46:52;99885.61;;;15.08;74.68
3748;BME280;1889;50.058;8.688;2023-04-29T01:49:25;99882.44;;;15.20;74.11
3748;BME280;1889;50.058;8.688;2023-04-29T01:51:55;99880.20;;;15.21;73.87
3748;BME280;1889;50.058;8.688;2023-04-29T01:54:24;99884.06;;;15.24;73.54
3748;BME280;1889;50.058;8.688;2023-04-29T01:56:54;99882.48;;;15.30;73.05
3748;BME280;1889;50.058;8.688;2023-04-29T01:59:24;99885.13;;;15.30;72.91
3748;BME280;1889;50.058;8.688;2023-04-29T02:01:53;99882.94;;;15.30;72.71
3748;BME280;1889;50.058;8.688;2023-04-29T02:04:24;99891.20;;;15.22;72.91
3748;BME280;1889;50.058;8.688;2023-04-29T02:06:55;99891.20;;;15.22;72.91
3748;BME280;1889;50.058;8.688;2023-04-29T02:09:24;99890.09;;;15.27;72.47
3748;BME280;1889;50.058;8.688;2023-04-29T02:11:54;99893.89;;;15.32;72.07
3748;BME280;1889;50.058;8.688;2023-04-29T02:14:23;99888.50;;;15.34;71.99
3748;BME280;1889;50.058;8.688;2023-04-29T02:16:52;99890.47;;;15.40;71.82
3748;BME280;1889;50.058;8.688;2023-04-29T02:19:22;99889.66;;;15.38;71.73
3748;BME280;1889;50.058;8.688;2023-04-29T02:21:51;99891.64;;;15.43;71.51
3748;BME280;1889;50.058;8.688;2023-04-29T02:24:20;99896.60;;;15.31;71.47
3748;BME280;1889;50.058;8.688;2023-04-29T02:26:50;99899.83;;;15.27;71.72
3748;BME280;1889;50.058;8.688;2023-04-29T02:29:19;99905.02;;;15.30;71.74
3748;BME280;1889;50.058;8.688;2023-04-29T02:31:48;99903.84;;;15.37;71.40
3748;BME280;1889;50.058;8.688;2023-04-29T02:34:19;99904.64;;;15.49;70.76
3748;BME280;1889;50.058;8.688;2023-04-29T02:36:49;99905.52;;;15.61;69.96
3748;BME280;1889;50.058;8.688;2023-04-29T02:39:18;99909.91;;;15.73;69.47
3748;BME280;1889;50.058;8.688;2023-04-29T02:41:48;99909.91;;;15.73;69.48
3748;BME280;1889;50.058;8.688;2023-04-29T02:44:17;99910.28;;;15.74;69.51
3748;BME280;1889;50.058;8.688;2023-04-29T02:46:47;99908.17;;;15.82;69.06
3748;BME280;1889;50.058;8.688;2023-04-29T02:49:16;99908.45;;;15.86;68.91
3748;BME280;1889;50.058;8.688;2023-04-29T02:51:45;99907.96;;;15.44;69.90
3748;BME280;1889;50.058;8.688;2023-04-29T02:54:16;99911.36;;;14.93;72.30
3748;BME280;1889;50.058;8.688;2023-04-29T02:56:45;99921.84;;;14.84;73.68
3748;BME280;1889;50.058;8.688;2023-04-29T02:59:15;99912.02;;;15.21;72.30
3748;BME280;1889;50.058;8.688;2023-04-29T03:01:44;99913.27;;;15.56;70.82
3748;BME280;1889;50.058;8.688;2023-04-29T03:04:14;99912.09;;;15.63;70.20
3748;BME280;1889;50.058;8.688;2023-04-29T03:06:43;99912.69;;;15.70;69.66
3748;BME280;1889;50.058;8.688;2023-04-29T03:09:13;99912.26;;;15.37;70.98
3748;BME280;1889;50.058;8.688;2023-04-29T03:11:42;99913.13;;;15.15;71.91
3748;BME280;1889;50.058;8.688;2023-04-29T03:14:11;99912.41;;;15.44;71.35
3748;BME280;1889;50.058;8.688;2023-04-29T03:16:41;99906.30;;;15.53;70.82
3748;BME280;1889;50.058;8.688;2023-04-29T03:19:10;99912.40;;;15.65;70.43
3748;BME280;1889;50.058;8.688;2023-04-29T03:21:39;99907.38;;;15.90;69.68
3748;BME280;1889;50.058;8.688;2023-04-29T03:24:09;99907.38;;;15.90;69.68
3748;BME280;1889;50.058;8.688;2023-04-29T03:26:38;99914.91;;;15.58;70.60
3748;BME280;1889;50.058;8.688;2023-04-29T03:29:09;99910.91;;;15.48;71.36
3748;BME280;1889;50.058;8.688;2023-04-29T03:31:38;99908.42;;;15.65;70.61
3748;BME280;1889;50.058;8.688;2023-04-29T03:34:08;99906.53;;;15.79;69.55
3748;BME280;1889;50.058;8.688;2023-04-29T03:36:37;99912.83;;;15.11;72.07
3748;BME280;1889;50.058;8.688;2023-04-29T03:39:06;99912.42;;;14.88;74.17
3748;BME280;1889;50.058;8.688;2023-04-29T03:41:36;99911.35;;;15.04;73.35
3748;BME280;1889;50.058;8.688;2023-04-29T03:44:05;99916.47;;;14.75;73.71
3748;BME280;1889;50.058;8.688;2023-04-29T03:46:34;99923.64;;;14.60;74.29
3748;BME280;1889;50.058;8.688;2023-04-29T03:49:04;99923.64;;;14.60;74.29
3748;BME280;1889;50.058;8.688;2023-04-29T03:51:33;99923.18;;;14.96;73.38
3748;BME280;1889;50.058;8.688;2023-04-29T03:54:03;99929.66;;;15.10;72.21
3748;BME280;1889;50.058;8.688;2023-04-29T03:56:32;99926.13;;;15.00;71.54
3748;BME280;1889;50.058;8.688;2023-04-29T03:59:01;99927.88;;;15.11;71.42
3748;BME280;1889;50.058;8.688;2023-04-29T04:01:30;99928.07;;;14.95;70.76
3748;BME280;1889;50.058;8.688;2023-04-29T04:04:00;99937.89;;;14.81;71.29
3748;BME280;1889;50.058;8.688;2023-04-29T04:06:29;99935.19;;;14.59;72.53
3748;BME280;1889;50.058;8.688;2023-04-29T04:08:59;99936.97;;;14.82;72.15
3748;BME280;1889;50.058;8.688;2023-04-29T04:11:28;99944.89;;;14.94;71.67
3748;BME280;1889;50.058;8.688;2023-04-29T04:13:57;99945.00;;;15.14;70.70
3748;BME280;1889;50.058;8.688;2023-04-29T04:16:27;99947.08;;;14.94;70.68
3748;BME280;1889;50.058;8.688;2023-04-29T04:18:56;99946.29;;;14.80;71.14
3748;BME280;1889;50.058;8.688;2023-04-29T04:21:26;99960.41;;;14.81;70.50
3748;BME280;1889;50.058;8.688;2023-04-29T04:23:57;99964.55;;;14.88;70.69
3748;BME280;1889;50.058;8.688;2023-04-29T04:26:26;99968.34;;;15.04;69.81
3748;BME280;1889;50.058;8.688;2023-04-29T04:28:55;99967.28;;;15.08;69.28
3748;BME280;1889;50.058;8.688;2023-04-29T04:31:25;99972.48;;;15.11;69.35
3748;BME280;1889;50.058;8.688;2023-04-29T04:33:54;99974.64;;;14.90;69.24
3748;BME280;1889;50.058;8.688;2023-04-29T04:36:23;99971.55;;;15.01;69.59
3748;BME280;1889;50.058;8.688;2023-04-29T04:38:53;99982.07;;;15.37;68.24
3748;BME280;1889;50.058;8.688;2023-04-29T04:41:23;99989.05;;;15.40;68.04
3748;BME280;1889;50.058;8.688;2023-04-29T04:43:53;99986.92;;;15.38;68.25
3748;BME280;1889;50.058;8.688;2023-04-29T04:46:22;99988.89;;;15.09;68.80
3748;BME280;1889;50.058;8.688;2023-04-29T04:48:51;99989.33;;;14.99;69.14
3748;BME280;1889;50.058;8.688;2023-04-29T04:51:21;99988.50;;;14.85;69.11
3748;BME280;1889;50.058;8.688;2023-04-29T04:53:50;99993.69;;;14.65;69.64
3748;BME280;1889;50.058;8.688;2023-04-29T04:56:19;99996.56;;;14.59;69.54
3748;BME280;1889;50.058;8.688;2023-04-29T04:58:49;99999.23;;;14.82;68.71
3748;BME280;1889;50.058;8.688;2023-04-29T05:01:18;100005.73;;;14.73;68.21
3748;BME280;1889;50.058;8.688;2023-04-29T05:03:48;100003.88;;;14.64;68.29
3748;BME280;1889;50.058;8.688;2023-04-29T05:06:17;100006.77;;;14.81;68.47
3748;BME280;1889;50.058;8.688;2023-04-29T05:08:47;100008.86;;;14.60;68.24
3748;BME280;1889;50.058;8.688;2023-04-29T05:11:20;100011.59;;;14.58;68.49
3748;BME280;1889;50.058;8.688;2023-04-29T05:13:49;100014.27;;;14.81;67.51
3748;BME280;1889;50.058;8.688;2023-04-29T05:16:18;100018.36;;;14.54;66.87
3748;BME280;1889;50.058;8.688;2023-04-29T05:18:48;100020.50;;;15.15;66.08
3748;BME280;1889;50.058;8.688;2023-04-29T05:21:17;100024.75;;;14.96;66.04
3748;BME280;1889;50.058;8.688;2023-04-29T05:23:46;100031.23;;;14.64;66.33
3748;BME280;1889;50.058;8.688;2023-04-29T05:26:16;100039.50;;;14.55;65.66
3748;BME280;1889;50.058;8.688;2023-04-29T05:28:45;100035.70;;;14.50;65.56
3748;BME280;1889;50.058;8.688;2023-04-29T05:31:14;100033.65;;;14.70;65.78
3748;BME280;1889;50.058;8.688;2023-04-29T05:33:44;100039.86;;;14.58;65.47
3748;BME280;1889;50.058;8.688;2023-04-29T05:36:13;100044.88;;;14.65;65.36
3748;BME280;1889;50.058;8.688;2023-04-29T05:38:42;100040.99;;;14.75;65.14
3748;BME280;1889;50.058;8.688;2023-04-29T05:41:12;100048.02;;;14.88;65.05
3748;BME280;1889;50.058;8.688;2023-04-29T05:43:41;100053.70;;;14.53;64.81
3748;BME280;1889;50.058;8.688;2023-04-29T05:46:11;100053.70;;;14.53;64.81
3748;BME280;1889;50.058;8.688;2023-04-29T05:48:40;100065.70;;;14.36;64.54
3748;BME280;1889;50.058;8.688;2023-04-29T05:51:10;100059.45;;;14.65;64.49
3748;BME280;1889;50.058;8.688;2023-04-29T05:53:39;100072.02;;;14.72;64.01
3748;BME280;1889;50.058;8.688;2023-04-29T05:56:08;100076.33;;;14.99;63.90
3748;BME280;1889;50.058;8.688;2023-04-29T05:58:38;100080.33;;;15.22;62.63
3748;BME280;1889;50.058;8.688;2023-04-29T06:01:07;100086.40;;;14.89;63.18
3748;BME280;1889;50.058;8.688;2023-04-29T06:03:36;100079.16;;;15.18;63.10
3748;BME280;1889;50.058;8.688;2023-04-29T06:06:06;100083.52;;;14.96;61.96
3748;BME280;1889;50.058;8.688;2023-04-29T06:08:35;100083.97;;;14.45;63.08
3748;BME280;1889;50.058;8.688;2023-04-29T06:11:05;100095.41;;;14.33;63.75
3748;BME280;1889;50.058;8.688;2023-04-29T06:13:34;100096.34;;;14.45;63.41
3748;BME280;1889;50.058;8.688;2023-04-29T06:16:03;100106.06;;;14.44;63.29
3748;BME280;1889;50.058;8.688;2023-04-29T06:18:33;100102.48;;;14.72;62.51
3748;BME280;1889;50.058;8.688;2023-04-29T06:21:02;100111.48;;;14.79;62.21
3748;BME280;1889;50.058;8.688;2023-04-29T06:23:32;100110.05;;;14.58;62.43
3748;BME280;1889;50.058;8.688;2023-04-29T06:26:01;100107.64;;;14.63;62.60
3748;BME280;1889;50.058;8.688;2023-04-29T06:28:31;100115.42;;;14.93;62.15
3748;BME280;1889;50.058;8.688;2023-04-29T06:31:00;100117.70;;;15.03;61.53
3748;BME280;1889;50.058;8.688;2023-04-29T06:33:29;100125.50;;;14.83;62.14
3748;BME280;1889;50.058;8.688;2023-04-29T06:36:00;100125.14;;;15.05;61.52
3748;BME280;1889;50.058;8.688;2023-04-29T06:38:30;100125.14;;;15.05;61.52
3748;BME280;1889;50.058;8.688;2023-04-29T06:40:59;100136.88;;;14.73;62.12
3748;BME280;1889;50.058;8.688;2023-04-29T06:43:31;100138.67;;;14.98;61.44
3748;BME280;1889;50.058;8.688;2023-04-29T06:46:01;100142.14;;;15.00;60.70
3748;BME280;1889;50.058;8.688;2023-04-29T06:48:30;100145.84;;;14.82;60.80
3748;BME280;1889;50.058;8.688;2023-04-29T06:50:59;100144.05;;;15.19;58.58
3748;BME280;1889;50.058;8.688;2023-04-29T06:53:29;100149.59;;;15.13;58.93
3748;BME280;1889;50.058;8.688;2023-04-29T06:55:58;100149.59;;;15.13;58.93
3748;BME280;1889;50.058;8.688;2023-04-29T06:58:27;100156.34;;;14.72;59.09
3748;BME280;1889;50.058;8.688;2023-04-29T07:00:57;100152.93;;;14.56;59.33
3748;BME280;1889;50.058;8.688;2023-04-29T07:03:26;100160.55;;;14.51;59.73
3748;BME280;1889;50.058;8.688;2023-04-29T07:05:55;100163.51;;;14.69;59.67
3748;BME280;1889;50.058;8.688;2023-04-29T07:08:24;100163.66;;;14.77;60.02
3748;BME280;1889;50.058;8.688;2023-04-29T07:10:56;100160.88;;;15.18;59.30
3748;BME280;1889;50.058;8.688;2023-04-29T07:13:26;100168.82;;;15.32;58.81
3748;BME280;1889;50.058;8.688;2023-04-29T07:15:55;100167.00;;;15.57;58.39
3748;BME280;1889;50.058;8.688;2023-04-29T07:18:24;100175.04;;;15.55;58.54
3748;BME280;1889;50.058;8.688;2023-04-29T07:20:54;100175.55;;;15.77;57.75
3748;BME280;1889;50.058;8.688;2023-04-29T07:23:23;100175.55;;;15.77;57.75
3748;BME280;1889;50.058;8.688;2023-04-29T07:25:52;100181.84;;;15.86;57.86
3748;BME280;1889;50.058;8.688;2023-04-29T07:28:22;100177.25;;;15.18;58.40
3748;BME280;1889;50.058;8.688;2023-04-29T07:30:51;100182.81;;;15.35;59.15
3748;BME280;1889;50.058;8.688;2023-04-29T07:33:20;100178.98;;;15.19;59.46
3748;BME280;1889;50.058;8.688;2023-04-29T07:35:50;100180.93;;;15.39;59.36
3748;BME280;1889;50.058;8.688;2023-04-29T07:38:19;100191.72;;;15.46;58.97
3748;BME280;1889;50.058;8.688;2023-04-29T07:40:48;100187.44;;;15.17;59.36
3748;BME280;1889;50.058;8.688;2023-04-29T07:43:18;100197.55;;;15.19;59.03
3748;BME280;1889;50.058;8.688;2023-04-29T07:45:47;100197.55;;;15.19;59.03
3748;BME280;1889;50.058;8.688;2023-04-29T07:48:17;100202.56;;;15.64;58.16
3748;BME280;1889;50.058;8.688;2023-04-29T07:50:48;100202.56;;;15.64;58.16
3748;BME280;1889;50.058;8.688;2023-04-29T07:53:17;100215.00;;;15.49;58.12
3748;BME280;1889;50.058;8.688;2023-04-29T07:55:47;100217.20;;;15.25;58.43
3748;BME280;1889;50.058;8.688;2023-04-29T07:58:16;100217.20;;;15.25;58.43
3748;BME280;1889;50.058;8.688;2023-04-29T08:00:45;100214.36;;;15.18;59.74
3748;BME280;1889;50.058;8.688;2023-04-29T08:03:15;100220.30;;;15.13;59.16
3748;BME280;1889;50.058;8.688;2023-04-29T08:05:44;100230.13;;;15.09;59.43
3748;BME280;1889;50.058;8.688;2023-04-29T08:08:13;100233.05;;;15.15;58.75
3748;BME280;1889;50.058;8.688;2023-04-29T08:10:43;100232.56;;;14.91;59.17
3748;BME280;1889;50.058;8.688;2023-04-29T08:13:12;100236.20;;;15.13;58.95
3748;BME280;1889;50.058;8.688;2023-04-29T08:15:42;100248.52;;;15.27;58.68
3748;BME280;1889;50.058;8.688;2023-04-29T08:18:11;100255.29;;;15.36;58.56
3748;BME280;1889;50.058;8.688;2023-04-29T08:20:40;100255.29;;;15.36;58.56
3748;BME280;1889;50.058;8.688;2023-04-29T08:23:10;100255.19;;;15.39;59.01
3748;BME280;1889;50.058;8.688;2023-04-29T08:25:41;100263.06;;;15.28;58.70
3748;BME280;1889;50.058;8.688;2023-04-29T08:28:11;100268.55;;;14.98;60.18
3748;BME280;1889;50.058;8.688;2023-04-29T08:30:40;100268.55;;;14.98;60.18
3748;BME280;1889;50.058;8.688;2023-04-29T08:33:09;100266.50;;;15.06;59.93
3748;BME280;1889;50.058;8.688;2023-04-29T08:35:40;100276.95;;;14.97;59.71
3748;BME280;1889;50.058;8.688;2023-04-29T08:38:10;100276.95;;;14.97;59.71
3748;BME280;1889;50.058;8.688;2023-04-29T08:40:43;100283.12;;;15.24;59.59
3748;BME280;1889;50.058;8.688;2023-04-29T08:43:16;100278.70;;;14.70;60.28
3748;BME280;1889;50.058;8.688;2023-04-29T08:45:47;100278.70;;;14.70;60.28
3748;BME280;1889;50.058;8.688;2023-04-29T08:48:17;100274.52;;;14.63;61.16
3748;BME280;1889;50.058;8.688;2023-04-29T08:50:46;100283.09;;;14.71;61.30
3748;BME280;1889;50.058;8.688;2023-04-29T08:53:16;100277.63;;;14.91;60.97
3748;BME280;1889;50.058;8.688;2023-04-29T08:55:46;100283.42;;;14.88;61.34
3748;BME280;1889;50.058;8.688;2023-04-29T08:58:16;100287.85;;;14.88;61.58
3748;BME280;1889;50.058;8.688;2023-04-29T09:00:46;100293.04;;;15.17;60.38
3748;BME280;1889;50.058;8.688;2023-04-29T09:03:43;100295.64;;;14.93;61.35
3748;BME280;1889;50.058;8.688;2023-04-29T09:06:13;100291.87;;;14.73;61.97
3748;BME280;1889;50.058;8.688;2023-04-29T09:08:42;100291.48;;;14.58;62.71
3748;BME280;1889;50.058;8.688;2023-04-29T09:11:12;100293.52;;;14.63;62.92
3748;BME280;1889;50.058;8.688;2023-04-29T09:13:41;100298.00;;;14.88;62.33
3748;BME280;1889;50.058;8.688;2023-04-29T09:16:11;100292.70;;;14.61;62.25
3748;BME280;1889;50.058;8.688;2023-04-29T09:18:50;100297.17;;;14.73;62.65
3748;BME280;1889;50.058;8.688;2023-04-29T09:21:22;100297.67;;;14.84;62.49
3748;BME280;1889;50.058;8.688;2023-04-29T09:23:55;100297.38;;;14.94;62.76
3748;BME280;1889;50.058;8.688;2023-04-29T09:26:25;100295.64;;;15.19;61.71
3748;BME280;1889;50.058;8.688;2023-04-29T09:29:13;100296.07;;;15.07;61.89
3748;BME280;1889;50.058;8.688;2023-04-29T09:31:44;100303.20;;;15.31;61.60
3748;BME280;1889;50.058;8.688;2023-04-29T09:34:13;100307.81;;;15.89;60.58
3748;BME280;1889;50.058;8.688;2023-04-29T09:36:45;100307.81;;;15.89;60.58
3748;BME280;1889;50.058;8.688;2023-04-29T09:39:19;100306.13;;;15.98;59.83
3748;BME280;1889;50.058;8.688;2023-04-29T09:44:32;100313.73;;;15.46;59.90
3748;BME280;1889;50.058;8.688;2023-04-29T09:47:08;100327.17;;;15.54;60.16
3748;BME280;1889;50.058;8.688;2023-04-29T09:49:39;100327.17;;;15.54;60.16
3748;BME280;1889;50.058;8.688;2023-04-29T09:52:13;100321.23;;;15.46;60.64
3748;BME280;1889;50.058;8.688;2023-04-29T09:54:44;100328.52;;;15.66;59.92
3748;BME280;1889;50.058;8.688;2023-04-29T09:57:14;100322.34;;;15.52;60.94
3748;BME280;1889;50.058;8.688;2023-04-29T09:59:43;100322.34;;;15.52;60.94
3748;BME280;1889;50.058;8.688;2023-04-29T10:02:16;100320.74;;;15.73;60.58
3748;BME280;1889;50.058;8.688;2023-04-29T10:04:48;100330.89;;;15.62;60.73
3748;BME280;1889;50.058;8.688;2023-04-29T10:07:19;100330.89;;;15.62;60.73
3748;BME280;1889;50.058;8.688;2023-04-29T10:09:49;100328.83;;;15.57;60.90
3748;BME280;1889;50.058;8.688;2023-04-29T10:12:19;100326.52;;;16.09;59.32
3748;BME280;1889;50.058;8.688;2023-04-29T10:15:02;100332.80;;;16.07;59.14
3748;BME280;1889;50.058;8.688;2023-04-29T10:17:42;100333.59;;;15.60;60.49
3748;BME280;1889;50.058;8.688;2023-04-29T10:20:13;100337.21;;;16.19;59.15
3748;BME280;1889;50.058;8.688;2023-04-29T10:22:48;100342.78;;;15.63;60.11
3748;BME280;1889;50.058;8.688;2023-04-29T10:25:19;100339.35;;;15.20;61.18
3748;BME280;1889;50.058;8.688;2023-04-29T10:27:49;100339.35;;;15.20;61.18
3748;BME280;1889;50.058;8.688;2023-04-29T10:30:22;100339.05;;;15.30;61.74
3748;BME280;1889;50.058;8.688;2023-04-29T10:32:51;100337.39;;;15.52;61.09
3748;BME280;1889;50.058;8.688;2023-04-29T10:35:21;100340.17;;;15.62;60.71
3748;BME280;1889;50.058;8.688;2023-04-29T10:37:52;100340.17;;;15.62;60.71
3748;BME280;1889;50.058;8.688;2023-04-29T10:40:30;100346.48;;;16.08;59.45
3748;BME280;1889;50.058;8.688;2023-04-29T10:42:59;100335.63;;;16.02;59.66
3748;BME280;1889;50.058;8.688;2023-04-29T10:45:31;100344.70;;;15.72;59.30
3748;BME280;1889;50.058;8.688;2023-04-29T10:53:21;100346.16;;;16.05;59.34
3748;BME280;1889;50.058;8.688;2023-04-29T10:55:56;100346.16;;;16.05;59.34
3748;BME280;1889;50.058;8.688;2023-04-29T10:58:44;100349.39;;;16.60;58.08
3748;BME280;1889;50.058;8.688;2023-04-29T11:01:16;100345.04;;;16.81;57.65
3748;BME280;1889;50.058;8.688;2023-04-29T11:03:53;100354.03;;;16.66;56.83
3748;BME280;1889;50.058;8.688;2023-04-29T11:09:24;100338.84;;;16.92;56.55
3748;BME280;1889;50.058;8.688;2023-04-29T11:17:11;100329.53;;;17.76;54.22
3748;BME280;1889;50.058;8.688;2023-04-29T11:19:45;100332.58;;;17.14;54.58
3748;BME280;1889;50.058;8.688;2023-04-29T11:22:26;100331.19;;;17.58;54.07
3748;BME280;1889;50.058;8.688;2023-04-29T11:25:07;100331.84;;;18.04;53.11
3748;BME280;1889;50.058;8.688;2023-04-29T11:27:35;100322.80;;;17.98;52.37
3748;BME280;1889;50.058;8.688;2023-04-29T11:30:05;100320.48;;;18.48;51.13
3748;BME280;1889;50.058;8.688;2023-04-29T11:32:37;100325.33;;;18.58;50.01
3748;BME280;1889;50.058;8.688;2023-04-29T11:35:12;100317.19;;;18.80;50.03
3748;BME280;1889;50.058;8.688;2023-04-29T11:37:43;100321.30;;;18.96;50.07
3748;BME280;1889;50.058;8.688;2023-04-29T11:40:16;100320.64;;;18.91;49.86
3748;BME280;1889;50.058;8.688;2023-04-29T11:42:47;100321.93;;;19.01;48.82
3748;BME280;1889;50.058;8.688;2023-04-29T11:45:20;100321.93;;;19.01;48.82
3748;BME280;1889;50.058;8.688;2023-04-29T11:47:51;100324.40;;;19.31;49.24
3748;BME280;1889;50.058;8.688;2023-04-29T11:50:21;100324.40;;;19.31;49.24
3748;BME280;1889;50.058;8.688;2023-04-29T11:52:50;100330.66;;;18.77;48.92
3748;BME280;1889;50.058;8.688;2023-04-29T11:55:20;100330.66;;;18.77;48.92
3748;BME280;1889;50.058;8.688;2023-04-29T11:57:49;100326.44;;;18.34;48.52
3748;BME280;1889;50.058;8.688;2023-04-29T12:00:19;100326.62;;;17.82;49.81
3748;BME280;1889;50.058;8.688;2023-04-29T12:02:49;100328.02;;;17.90;49.86
3748;BME280;1889;50.058;8.688;2023-04-29T12:05:18;100328.45;;;18.39;49.20
3748;BME280;1889;50.058;8.688;2023-04-29T12:07:48;100327.95;;;18.68;48.96
3748;BME280;1889;50.058;8.688;2023-04-29T12:10:18;100326.31;;;18.93;47.98
3748;BME280;1889;50.058;8.688;2023-04-29T12:12:48;100326.31;;;18.93;47.98
3748;BME280;1889;50.058;8.688;2023-04-29T12:15:18;100329.70;;;18.97;47.76
3748;BME280;1889;50.058;8.688;2023-04-29T12:17:47;100328.22;;;19.09;46.63
3748;BME280;1889;50.058;8.688;2023-04-29T12:20:17;100329.05;;;18.54;47.34
3748;BME280;1889;50.058;8.688;2023-04-29T12:22:46;100329.05;;;18.54;47.34
3748;BME280;1889;50.058;8.688;2023-04-29T12:25:16;100329.05;;;18.54;47.96
3748;BME280;1889;50.058;8.688;2023-04-29T12:27:45;100321.89;;;18.56;48.53
3748;BME280;1889;50.058;8.688;2023-04-29T12:30:14;100322.87;;;19.00;47.35
3748;BME280;1889;50.058;8.688;2023-04-29T12:32:44;100328.75;;;19.06;47.49
3748;BME280;1889;50.058;8.688;2023-04-29T12:35:17;100339.00;;;19.24;47.03
3748;BME280;1889;50.058;8.688;2023-04-29T12:37:49;100341.58;;;19.17;46.85
3748;BME280;1889;50.058;8.688;2023-04-29T12:40:19;100338.13;;;18.60;47.26
3748;BME280;1889;50.058;8.688;2023-04-29T12:42:48;100338.13;;;18.60;47.26
3748;BME280;1889;50.058;8.688;2023-04-29T12:45:32;100336.28;;;18.23;48.15
3748;BME280;1889;50.058;8.688;2023-04-29T12:48:02;100341.77;;;18.39;47.97
3748;BME280;1889;50.058;8.688;2023-04-29T12:50:33;100343.66;;;18.17;48.76
3748;BME280;1889;50.058;8.688;2023-04-29T12:53:04;100336.55;;;18.46;47.82
3748;BME280;1889;50.058;8.688;2023-04-29T12:55:36;100341.66;;;18.61;47.89
3748;BME280;1889;50.058;8.688;2023-04-29T12:58:05;100342.50;;;18.33;48.96
3748;BME280;1889;50.058;8.688;2023-04-29T13:00:36;100341.66;;;18.61;49.15
3748;BME280;1889;50.058;8.688;2023-04-29T13:03:05;100347.97;;;18.40;48.68
3748;BME280;1889;50.058;8.688;2023-04-29T13:05:35;100344.95;;;18.66;48.38
3748;BME280;1889;50.058;8.688;2023-04-29T13:08:05;100347.20;;;18.17;49.57
3748;BME280;1889;50.058;8.688;2023-04-29T13:10:35;100348.72;;;18.52;48.37
3748;BME280;1889;50.058;8.688;2023-04-29T13:13:04;100355.17;;;17.88;48.92
3748;BME280;1889;50.058;8.688;2023-04-29T13:15:36;100351.23;;;17.97;50.13
3748;BME280;1889;50.058;8.688;2023-04-29T13:18:08;100354.36;;;17.86;49.48
3748;BME280;1889;50.058;8.688;2023-04-29T13:20:37;100355.71;;;17.66;50.23
3748;BME280;1889;50.058;8.688;2023-04-29T13:23:07;100356.48;;;17.68;50.96
3748;BME280;1889;50.058;8.688;2023-04-29T13:25:36;100356.48;;;17.68;50.96
3748;BME280;1889;50.058;8.688;2023-04-29T13:28:05;100352.47;;;18.09;50.01
3748;BME280;1889;50.058;8.688;2023-04-29T13:30:35;100355.30;;;18.06;49.92
3748;BME280;1889;50.058;8.688;2023-04-29T13:33:04;100354.75;;;17.35;51.12
3748;BME280;1889;50.058;8.688;2023-04-29T13:35:34;100362.97;;;17.41;51.61
3748;BME280;1889;50.058;8.688;2023-04-29T13:38:05;100364.86;;;17.59;51.37
3748;BME280;1889;50.058;8.688;2023-04-29T13:40:34;100365.34;;;17.37;51.27
3748;BME280;1889;50.058;8.688;2023-04-29T13:43:04;100369.41;;;17.77;51.12
3748;BME280;1889;50.058;8.688;2023-04-29T13:45:33;100369.41;;;18.08;50.66
3748;BME280;1889;50.058;8.688;2023-04-29T13:48:05;100369.25;;;18.21;50.67
3748;BME280;1889;50.058;8.688;2023-04-29T13:50:35;100371.98;;;18.09;50.96
3748;BME280;1889;50.058;8.688;2023-04-29T13:53:04;100372.44;;;18.19;50.20
3748;BME280;1889;50.058;8.688;2023-04-29T13:55:34;100369.59;;;18.23;50.66